createdAt,value
2017-05-24T00:00:42.753Z,10.36
2017-05-24T00:03:11.642Z,9.68
2017-05-24T00:05:40.567Z,8.34
2017-05-24T00:08:09.471Z,10.68
2017-05-24T00:10:38.419Z,9.52
2017-05-24T00:13:07.329Z,7.40
2017-05-24T00:15:36.225Z,8.12
2017-05-24T00:18:05.167Z,11.86
2017-05-24T00:20:47.642Z,10.42
2017-05-24T00:23:16.574Z,13.80
2017-05-24T00:25:45.499Z,8.86
2017-05-24T00:28:14.397Z,11.46
2017-05-24T00:30:51.649Z,10.42
2017-05-24T00:33:20.548Z,7.96
2017-05-24T00:35:49.464Z,9.74
2017-05-24T00:38:17.586Z,10.26
2017-05-24T00:40:46.499Z,11.38
2017-05-24T00:43:15.424Z,8.82
2017-05-24T00:45:44.307Z,10.70
2017-05-24T00:48:14.419Z,7.08
2017-05-24T00:50:43.362Z,10.54
2017-05-24T00:53:12.250Z,6.74
2017-05-24T00:55:41.161Z,11.72
2017-05-24T00:58:10.059Z,12.12
2017-05-24T01:00:38.982Z,8.88
2017-05-24T01:03:07.899Z,9.46
2017-05-24T01:05:36.807Z,9.96
2017-05-24T01:08:05.753Z,10.42
2017-05-24T01:10:34.654Z,17.66
2017-05-24T01:13:03.590Z,12.38
2017-05-24T01:15:37.552Z,12.12
2017-05-24T01:18:06.512Z,10.94
2017-05-24T01:20:35.403Z,11.04
2017-05-24T01:23:04.325Z,12.22
2017-05-24T01:25:33.243Z,13.70
2017-05-24T01:28:01.386Z,10.76
2017-05-24T01:30:30.325Z,9.68
2017-05-24T01:33:10.695Z,11.12
2017-05-24T01:35:39.628Z,11.36
2017-05-24T01:38:08.538Z,9.40
2017-05-24T01:40:37.431Z,16.72
2017-05-24T01:43:06.344Z,15.36
2017-05-24T01:45:35.234Z,9.74
2017-05-24T01:48:03.394Z,13.64
2017-05-24T01:50:32.320Z,8.94
2017-05-24T01:53:00.452Z,10.14
2017-05-24T01:55:29.366Z,10.88
2017-05-24T01:57:58.259Z,11.18
2017-05-24T02:00:33.089Z,12.10
2017-05-24T02:03:01.995Z,15.48
2017-05-24T02:05:30.895Z,14.92
2017-05-24T02:07:59.073Z,7.88
2017-05-24T02:10:27.226Z,12.20
2017-05-24T02:12:56.181Z,17.22
2017-05-24T02:15:25.093Z,12.08
2017-05-24T02:17:53.987Z,14.32
2017-05-24T02:20:22.903Z,8.32
2017-05-24T02:22:51.817Z,13.28
2017-05-24T02:25:20.759Z,12.04
2017-05-24T02:27:49.678Z,9.32
2017-05-24T02:30:19.562Z,17.36
2017-05-24T02:32:48.486Z,8.84
2017-05-24T02:35:17.444Z,15.18
2017-05-24T02:37:46.404Z,12.12
2017-05-24T02:40:15.321Z,11.60
2017-05-24T02:42:46.174Z,11.02
2017-05-24T02:45:15.073Z,14.00
2017-05-24T02:47:43.994Z,10.44
2017-05-24T02:50:12.167Z,14.50
2017-05-24T02:52:41.070Z,9.68
2017-05-24T02:55:10.006Z,11.24
2017-05-24T02:57:38.876Z,15.42
2017-05-24T03:00:12.094Z,12.14
2017-05-24T03:02:40.998Z,11.16
2017-05-24T03:05:09.903Z,11.02
2017-05-24T03:07:45.138Z,11.24
2017-05-24T03:10:19.731Z,9.16
2017-05-24T03:12:48.632Z,9.14
2017-05-24T03:15:17.533Z,9.44
2017-05-24T03:17:45.671Z,9.84
2017-05-24T03:20:14.621Z,10.18
2017-05-24T03:22:43.841Z,10.76
2017-05-24T03:25:12.755Z,8.86
2017-05-24T03:27:41.647Z,10.96
2017-05-24T03:30:10.542Z,12.72
2017-05-24T03:32:38.697Z,11.54
2017-05-24T03:35:07.622Z,12.44
2017-05-24T03:37:36.545Z,12.54
2017-05-24T03:40:04.706Z,13.50
2017-05-24T03:42:33.625Z,13.18
2017-05-24T03:45:02.510Z,12.82
2017-05-24T03:47:31.451Z,7.84
2017-05-24T03:50:00.397Z,12.12
2017-05-24T03:52:29.307Z,16.24
2017-05-24T03:54:58.233Z,10.64
2017-05-24T03:57:27.116Z,8.90
2017-05-24T03:59:56.051Z,11.80
2017-05-24T04:02:24.993Z,7.82
2017-05-24T04:04:53.955Z,9.42
2017-05-24T04:07:22.859Z,7.76
2017-05-24T04:09:51.765Z,19.96
2017-05-24T04:12:19.927Z,14.74
2017-05-24T04:14:48.854Z,9.06
2017-05-24T04:17:17.754Z,14.20
2017-05-24T04:19:45.994Z,11.96
2017-05-24T04:22:14.910Z,6.98
2017-05-24T04:24:43.126Z,8.12
2017-05-24T04:27:12.054Z,15.90
2017-05-24T04:29:40.206Z,10.20
2017-05-24T04:32:09.212Z,10.28
2017-05-24T04:34:38.129Z,11.36
2017-05-24T04:37:07.094Z,12.36
2017-05-24T04:39:35.994Z,9.82
2017-05-24T04:42:04.904Z,9.90
2017-05-24T04:44:33.830Z,11.80
2017-05-24T04:47:02.748Z,10.36
2017-05-24T04:49:32.532Z,10.50
2017-05-24T04:52:01.487Z,7.32
2017-05-24T04:54:29.674Z,8.64
2017-05-24T04:57:01.059Z,8.98
2017-05-24T04:59:29.980Z,14.46
2017-05-24T05:02:00.067Z,7.80
2017-05-24T05:04:29.573Z,7.08
2017-05-24T05:06:58.702Z,12.68
2017-05-24T05:09:27.611Z,8.08
2017-05-24T05:11:56.519Z,11.30
2017-05-24T05:14:25.465Z,8.38
2017-05-24T05:16:54.371Z,10.54
2017-05-24T05:19:23.274Z,9.06
2017-05-24T05:21:51.447Z,5.96
2017-05-24T05:24:20.387Z,8.80
2017-05-24T05:26:50.130Z,8.40
2017-05-24T05:29:19.080Z,4.46
2017-05-24T05:31:48.071Z,8.48
2017-05-24T05:34:17.064Z,6.20
2017-05-24T05:36:46.014Z,4.74
2017-05-24T05:39:16.171Z,8.80
2017-05-24T05:41:45.168Z,5.76
2017-05-24T05:44:14.387Z,5.42
2017-05-24T05:46:43.403Z,6.28
2017-05-24T05:49:11.787Z,8.14
2017-05-24T05:51:40.741Z,5.04
2017-05-24T05:54:08.888Z,6.22
2017-05-24T05:56:37.847Z,6.14
2017-05-24T05:59:06.769Z,6.72
2017-05-24T06:01:35.721Z,6.34
2017-05-24T06:04:03.891Z,10.44
2017-05-24T06:06:32.855Z,8.52
2017-05-24T06:09:01.844Z,6.12
2017-05-24T06:11:30.771Z,8.82
2017-05-24T06:13:59.713Z,6.94
2017-05-24T06:16:28.651Z,8.62
2017-05-24T06:18:57.736Z,4.02
2017-05-24T06:21:26.642Z,4.12
2017-05-24T06:23:55.647Z,7.06
2017-05-24T06:26:24.576Z,9.84
2017-05-24T06:28:53.531Z,7.98
2017-05-24T06:31:22.460Z,12.16
2017-05-24T06:33:51.360Z,5.72
2017-05-24T06:36:20.303Z,6.30
2017-05-24T06:38:49.212Z,7.14
2017-05-24T06:41:17.438Z,7.86
2017-05-24T06:46:24.499Z,6.06
2017-05-24T06:48:53.440Z,4.64
2017-05-24T06:51:22.356Z,5.24
2017-05-24T06:53:51.318Z,12.12
2017-05-24T06:56:20.243Z,6.44
2017-05-24T06:58:49.225Z,11.76
2017-05-24T07:01:17.344Z,5.46
2017-05-24T07:03:45.584Z,7.38
2017-05-24T07:06:14.543Z,2.48
2017-05-24T07:08:43.561Z,7.10
2017-05-24T07:11:12.492Z,6.68
2017-05-24T07:13:41.414Z,7.14
2017-05-24T07:16:10.517Z,8.18
2017-05-24T07:18:39.449Z,9.44
2017-05-24T07:21:07.601Z,8.62
2017-05-24T07:23:36.523Z,8.02
2017-05-24T07:26:05.455Z,6.56
2017-05-24T07:28:33.751Z,4.24
2017-05-24T07:31:02.679Z,3.12
2017-05-24T07:33:30.879Z,5.02
2017-05-24T07:35:59.852Z,4.24
2017-05-24T07:38:28.023Z,7.20
2017-05-24T07:40:57.168Z,4.40
2017-05-24T07:43:26.179Z,6.00
2017-05-24T07:45:55.111Z,11.38
2017-05-24T07:48:24.053Z,6.94
2017-05-24T07:50:52.983Z,5.42
2017-05-24T07:53:24.956Z,4.88
2017-05-24T07:55:53.975Z,11.04
2017-05-24T07:58:22.885Z,5.62
2017-05-24T08:00:51.821Z,7.38
2017-05-24T08:03:20.743Z,8.52
2017-05-24T08:05:49.703Z,6.42
2017-05-24T08:08:18.610Z,6.22
2017-05-24T08:10:47.545Z,6.00
2017-05-24T08:13:16.489Z,7.96
2017-05-24T08:15:45.425Z,4.62
2017-05-24T08:18:14.416Z,8.28
2017-05-24T08:20:43.333Z,5.90
2017-05-24T08:23:11.676Z,4.56
2017-05-24T08:25:40.603Z,7.48
2017-05-24T08:28:09.552Z,5.36
2017-05-24T08:30:38.548Z,5.82
2017-05-24T08:33:08.497Z,5.92
2017-05-24T08:35:37.419Z,6.12
2017-05-24T08:38:06.404Z,8.20
2017-05-24T08:40:35.312Z,5.44
2017-05-24T08:43:04.255Z,5.32
2017-05-24T08:45:33.200Z,8.46
2017-05-24T08:48:02.172Z,3.18
2017-05-24T08:50:31.128Z,7.42
2017-05-24T08:53:00.093Z,5.64
2017-05-24T08:55:29.517Z,4.74
2017-05-24T08:57:58.456Z,4.78
2017-05-24T09:00:26.621Z,5.74
2017-05-24T09:02:55.569Z,7.74
2017-05-24T09:05:24.587Z,6.76
2017-05-24T09:07:53.536Z,8.50
2017-05-24T09:10:22.448Z,5.90
2017-05-24T09:12:51.401Z,8.04
2017-05-24T09:15:20.322Z,6.56
2017-05-24T09:17:49.228Z,6.48
2017-05-24T09:20:17.443Z,6.40
2017-05-24T09:22:46.393Z,5.52
2017-05-24T09:25:15.547Z,10.26
2017-05-24T09:27:44.525Z,7.58
2017-05-24T09:30:13.472Z,5.06
2017-05-24T09:32:42.408Z,6.06
2017-05-24T09:35:11.322Z,6.26
2017-05-24T09:37:40.273Z,6.50
2017-05-24T09:40:09.279Z,4.28
2017-05-24T09:42:38.231Z,5.76
2017-05-24T09:45:09.159Z,10.04
2017-05-24T09:47:38.069Z,4.10
2017-05-24T09:50:07.024Z,5.06
2017-05-24T09:52:35.214Z,4.60
2017-05-24T09:55:04.175Z,3.72
2017-05-24T09:57:33.143Z,7.88
2017-05-24T10:00:02.116Z,6.12
2017-05-24T10:02:31.043Z,4.78
2017-05-24T10:05:00.337Z,8.36
2017-05-24T10:07:29.275Z,4.64
2017-05-24T10:09:58.267Z,6.60
2017-05-24T10:12:27.339Z,5.08
2017-05-24T10:14:55.545Z,4.20
2017-05-24T10:17:24.465Z,8.16
2017-05-24T10:19:52.700Z,5.58
2017-05-24T10:22:21.679Z,5.14
2017-05-24T10:24:50.599Z,6.14
2017-05-24T10:27:19.582Z,3.38
2017-05-24T10:29:47.771Z,5.20
2017-05-24T10:32:15.910Z,6.90
2017-05-24T10:34:44.897Z,8.90
2017-05-24T10:37:13.859Z,5.70
2017-05-24T10:39:42.848Z,6.46
2017-05-24T10:42:17.492Z,6.42
2017-05-24T10:44:45.634Z,1.70
2017-05-24T10:47:14.648Z,7.44
2017-05-24T10:49:43.531Z,3.20
2017-05-24T10:52:11.735Z,3.72
2017-05-24T10:54:40.667Z,4.40
2017-05-24T10:57:09.583Z,2.76
2017-05-24T10:59:38.519Z,3.86
2017-05-24T11:02:06.677Z,2.68
2017-05-24T11:04:35.602Z,4.88
2017-05-24T11:07:04.561Z,2.44
2017-05-24T11:09:33.473Z,1.78
2017-05-24T11:12:02.412Z,3.28
2017-05-24T11:14:32.491Z,3.04
2017-05-24T11:17:01.613Z,4.38
2017-05-24T11:19:30.518Z,2.94
2017-05-24T11:21:59.430Z,6.96
2017-05-24T11:24:28.463Z,3.56
2017-05-24T11:26:57.961Z,2.92
2017-05-24T11:29:26.134Z,5.80
2017-05-24T11:31:55.049Z,1.82
2017-05-24T11:34:24.025Z,3.22
2017-05-24T11:36:53.698Z,3.60
2017-05-24T11:39:22.711Z,3.62
2017-05-24T11:41:51.623Z,4.64
2017-05-24T11:44:20.559Z,5.52
2017-05-24T11:46:49.488Z,3.94
2017-05-24T11:49:18.500Z,3.56
2017-05-24T11:51:47.414Z,2.30
2017-05-24T11:54:16.527Z,3.16
2017-05-24T11:56:45.486Z,2.12
2017-05-24T11:59:14.376Z,3.72
2017-05-24T12:01:43.351Z,2.12
2017-05-24T12:04:12.285Z,2.46
2017-05-24T12:06:41.194Z,2.66
2017-05-24T12:09:10.112Z,3.60
2017-05-24T12:11:39.023Z,4.10
2017-05-24T12:14:07.993Z,3.80
2017-05-24T12:16:53.739Z,4.08
2017-05-24T12:19:23.570Z,4.04
2017-05-24T12:21:53.784Z,3.94
2017-05-24T12:24:23.092Z,3.58
2017-05-24T12:26:52.877Z,3.90
2017-05-24T12:29:22.619Z,5.38
2017-05-24T12:31:51.567Z,3.42
2017-05-24T12:34:21.115Z,4.98
2017-05-24T12:36:50.075Z,5.80
2017-05-24T12:39:30.019Z,2.94
2017-05-24T12:41:58.986Z,3.04
2017-05-24T12:44:27.897Z,2.78
2017-05-24T12:46:57.728Z,3.74
2017-05-24T12:49:27.476Z,3.30
2017-05-24T12:51:56.408Z,4.00
2017-05-24T12:54:25.371Z,4.54
2017-05-24T12:56:57.585Z,3.94
2017-05-24T12:59:41.971Z,4.48
2017-05-24T13:02:10.116Z,7.86
2017-05-24T13:04:57.244Z,5.86
2017-05-24T13:07:27.056Z,6.98
2017-05-24T13:09:55.216Z,5.38
2017-05-24T13:12:24.863Z,4.12
2017-05-24T13:14:55.336Z,5.78
2017-05-24T13:17:25.296Z,6.06
2017-05-24T13:19:54.201Z,5.34
2017-05-24T13:22:23.127Z,4.06
2017-05-24T13:24:52.685Z,3.54
2017-05-24T13:27:21.609Z,4.14
2017-05-24T13:29:52.897Z,3.50
2017-05-24T13:32:23.050Z,7.24
2017-05-24T13:34:52.005Z,3.64
2017-05-24T13:37:21.007Z,3.88
2017-05-24T13:39:49.124Z,2.84
2017-05-24T13:42:18.119Z,5.32
2017-05-24T13:44:47.029Z,6.12
2017-05-24T13:47:15.961Z,4.30
2017-05-24T13:49:45.906Z,4.54
2017-05-24T13:55:12.454Z,6.62
2017-05-24T13:57:41.422Z,2.40
2017-05-24T14:00:10.416Z,7.76
2017-05-24T14:02:40.253Z,4.40
2017-05-24T14:05:12.621Z,3.68
2017-05-24T14:07:41.613Z,3.42
2017-05-24T14:10:12.900Z,2.16
2017-05-24T14:12:41.155Z,6.36
2017-05-24T14:15:10.099Z,4.02
2017-05-24T14:17:39.021Z,3.38
2017-05-24T14:20:08.039Z,4.56
2017-05-24T14:22:36.969Z,2.86
2017-05-24T14:25:08.681Z,5.86
2017-05-24T14:27:40.623Z,4.40
2017-05-24T14:30:09.265Z,4.36
2017-05-24T14:32:38.308Z,2.60
2017-05-24T14:35:09.337Z,4.40
2017-05-24T14:37:38.277Z,2.00
2017-05-24T14:43:00.261Z,5.06
2017-05-24T14:45:29.226Z,4.22
2017-05-24T14:47:58.266Z,5.16
2017-05-24T14:50:34.761Z,4.38
2017-05-24T14:53:08.102Z,4.78
2017-05-24T14:55:46.563Z,6.30
2017-05-24T14:58:19.572Z,6.60
2017-05-24T15:00:51.643Z,2.86
2017-05-24T15:03:21.651Z,3.14
2017-05-24T15:05:53.394Z,3.96
2017-05-24T15:08:23.863Z,5.70
2017-05-24T15:10:52.875Z,7.62
2017-05-24T15:16:33.613Z,2.04
2017-05-24T15:32:32.374Z,4.84
2017-05-24T15:38:15.256Z,5.00
2017-05-24T15:40:43.583Z,4.36
2017-05-24T15:43:13.222Z,9.00
2017-05-24T15:45:42.963Z,6.12
2017-05-24T15:48:11.860Z,3.78
2017-05-24T15:50:40.810Z,3.12
2017-05-24T15:53:09.824Z,3.74
2017-05-24T15:55:38.762Z,3.54
2017-05-24T15:58:07.707Z,3.32
2017-05-24T16:00:37.635Z,4.78
2017-05-24T16:03:06.627Z,4.50
2017-05-24T16:05:35.545Z,4.60
2017-05-24T16:08:03.711Z,4.54
2017-05-24T16:10:32.675Z,2.90
2017-05-24T16:13:00.905Z,4.34
2017-05-24T16:15:29.887Z,3.32
2017-05-24T16:17:58.811Z,5.14
2017-05-24T16:20:26.982Z,4.72
2017-05-24T16:22:55.960Z,3.60
2017-05-24T16:25:25.244Z,3.30
2017-05-24T16:27:53.421Z,3.14
2017-05-24T16:30:22.365Z,7.16
2017-05-24T16:32:50.542Z,5.24
2017-05-24T16:35:19.484Z,2.98
2017-05-24T16:37:48.411Z,5.28
2017-05-24T16:40:16.589Z,5.52
2017-05-24T16:42:55.537Z,5.32
2017-05-24T16:45:24.470Z,3.88
2017-05-24T16:47:53.410Z,5.02
2017-05-24T16:50:39.502Z,6.34
2017-05-24T17:03:32.703Z,4.48
2017-05-24T17:09:33.370Z,2.72
2017-05-24T17:12:02.285Z,5.02
2017-05-24T17:14:31.591Z,3.60
2017-05-24T17:17:00.506Z,5.66
2017-05-24T17:19:39.318Z,5.32
2017-05-24T17:22:08.278Z,3.66
2017-05-24T17:24:37.211Z,6.46
2017-05-24T17:27:06.135Z,4.98
2017-05-24T17:29:35.125Z,3.94
2017-05-24T17:32:04.043Z,6.40
2017-05-24T17:34:32.975Z,3.30
2017-05-24T17:37:03.832Z,4.04
2017-05-24T17:39:32.993Z,6.42
2017-05-24T17:42:01.947Z,4.34
2017-05-24T17:44:44.315Z,5.02
2017-05-24T18:03:59.978Z,4.46
2017-05-24T18:06:29.139Z,3.78
2017-05-24T18:09:16.047Z,5.60
2017-05-24T18:11:45.053Z,5.98
2017-05-24T18:14:14.523Z,5.56
2017-05-24T18:16:47.870Z,5.78
2017-05-24T18:19:16.804Z,5.70
2017-05-24T18:21:45.758Z,3.00
2017-05-24T18:24:21.296Z,5.56
2017-05-24T18:26:52.112Z,4.28
2017-05-24T18:29:21.088Z,3.06
2017-05-24T18:31:51.923Z,7.08
2017-05-24T18:34:21.761Z,7.42
2017-05-24T18:36:50.687Z,3.88
2017-05-24T18:39:19.618Z,9.24
2017-05-24T18:41:50.584Z,4.22
2017-05-24T18:44:18.772Z,5.40
2017-05-24T18:46:50.476Z,8.60
2017-05-24T18:49:20.343Z,7.18
2017-05-24T18:51:57.778Z,5.82
2017-05-24T18:54:25.985Z,4.20
2017-05-24T18:56:54.889Z,5.20
2017-05-24T18:59:24.548Z,6.80
2017-05-24T19:01:53.451Z,4.82
2017-05-24T19:04:22.383Z,5.74
2017-05-24T19:06:51.377Z,6.30
2017-05-24T19:09:19.541Z,7.50
2017-05-24T19:11:48.487Z,6.26
2017-05-24T19:14:16.647Z,4.38
2017-05-24T19:16:46.108Z,6.34
2017-05-24T19:19:15.059Z,6.94
2017-05-24T19:21:47.089Z,6.18
2017-05-24T19:24:16.084Z,15.30
2017-05-24T19:26:44.960Z,6.52
2017-05-24T19:29:13.967Z,8.30
2017-05-24T19:31:43.726Z,7.24
2017-05-24T19:34:12.627Z,7.30
2017-05-24T19:36:41.538Z,7.50
2017-05-24T19:39:10.456Z,10.46
2017-05-24T19:41:39.837Z,10.08
2017-05-24T19:44:08.741Z,12.36
2017-05-24T19:46:37.647Z,8.52
2017-05-24T19:49:06.594Z,8.60
2017-05-24T19:51:35.498Z,8.88
2017-05-24T19:54:05.925Z,7.70
2017-05-24T19:56:34.909Z,7.66
2017-05-24T19:59:03.828Z,8.24
2017-05-24T20:01:32.012Z,10.46
2017-05-24T20:04:00.156Z,14.58
2017-05-24T20:06:36.607Z,8.60
2017-05-24T20:09:24.977Z,12.04
2017-05-24T20:11:55.624Z,7.48
2017-05-24T20:14:24.657Z,7.50
2017-05-24T20:16:53.629Z,9.08
2017-05-24T20:19:21.890Z,9.44
2017-05-24T20:21:50.045Z,6.60
2017-05-24T20:24:20.018Z,10.50
2017-05-24T20:26:51.617Z,9.04
2017-05-24T20:29:27.047Z,6.82
2017-05-24T20:31:56.152Z,8.74
2017-05-24T20:34:25.159Z,10.28
2017-05-24T20:36:54.136Z,8.64
2017-05-24T20:39:23.176Z,9.24
2017-05-24T20:41:52.196Z,8.96
2017-05-24T20:44:21.241Z,10.00
2017-05-24T20:46:51.149Z,7.70
2017-05-24T20:49:20.250Z,8.58
2017-05-24T20:51:49.758Z,11.78
2017-05-24T20:54:18.842Z,9.54
2017-05-24T20:56:47.895Z,7.76
2017-05-24T20:59:16.827Z,7.98
2017-05-24T21:01:48.510Z,7.04
2017-05-24T21:04:27.190Z,8.58
2017-05-24T21:06:56.229Z,11.86
2017-05-24T21:09:25.229Z,11.38
2017-05-24T21:11:54.153Z,12.00
2017-05-24T21:14:23.075Z,11.14
2017-05-24T21:16:52.038Z,8.54
2017-05-24T21:19:20.975Z,9.20
2017-05-24T21:21:49.914Z,9.78
2017-05-24T21:24:18.851Z,9.20
2017-05-24T21:26:47.770Z,10.78
2017-05-24T21:29:16.663Z,10.86
2017-05-24T21:31:45.626Z,9.12
2017-05-24T21:34:15.071Z,8.70
2017-05-24T21:36:47.871Z,11.14
2017-05-24T21:39:16.019Z,11.34
2017-05-24T21:41:45.508Z,12.08
2017-05-24T21:44:20.189Z,12.50
2017-05-24T21:46:49.173Z,15.16
2017-05-24T21:49:39.061Z,10.66
2017-05-24T21:52:07.946Z,9.08
2017-05-24T21:54:36.840Z,13.06
2017-05-24T22:00:05.382Z,10.68
2017-05-24T22:02:41.655Z,9.94
2017-05-24T22:08:07.169Z,10.10
2017-05-24T22:14:19.466Z,12.30
2017-05-24T22:17:09.522Z,17.54
2017-05-24T22:20:01.993Z,16.54
2017-05-24T22:36:00.738Z,13.86
2017-05-24T22:51:55.926Z,15.12
2017-05-24T22:54:25.583Z,14.58
2017-05-24T22:56:54.506Z,15.00
2017-05-24T22:59:23.414Z,15.10
2017-05-24T23:01:52.314Z,16.28
2017-05-24T23:04:20.456Z,16.68
2017-05-24T23:06:49.382Z,16.66
2017-05-24T23:09:18.302Z,17.22
2017-05-24T23:11:46.434Z,14.66
2017-05-24T23:14:15.332Z,17.96
2017-05-24T23:16:44.265Z,15.86
2017-05-24T23:19:12.427Z,18.08
2017-05-24T23:21:41.382Z,15.12
2017-05-24T23:24:10.281Z,17.14
2017-05-24T23:26:39.191Z,17.46
2017-05-24T23:29:07.336Z,17.48
2017-05-24T23:31:35.462Z,18.94
2017-05-24T23:34:04.407Z,22.46
2017-05-24T23:36:33.293Z,20.74
2017-05-24T23:39:01.442Z,20.88
2017-05-24T23:41:30.359Z,20.96
2017-05-24T23:43:58.502Z,25.54
2017-05-24T23:46:27.417Z,20.92
2017-05-24T23:48:55.550Z,17.58
2017-05-24T23:51:24.465Z,19.56
2017-05-24T23:53:52.612Z,26.24
2017-05-24T23:56:21.524Z,19.98
2017-05-24T23:58:50.452Z,21.18
